Time;durP1;ratioP1;P1;durP2;ratioP2;P2;SDS_P1;SDS_P2;PMS_P1;PMS_P2;Temp;Humidity;BMP_temperature;BMP_pressure;BME280_temperature;BME280_humidity;BME280_pressure;Samples;Min_cycle;Max_cycle;Signal;HPM_P1;HPM_P2
2021/01/06 00:00:28;;;;;;;10.93;7.50;;;6.40;74.40;;;;;;5094472;28;20123;-71
2021/01/06 00:02:54;;;;;;;10.00;7.95;;;6.50;74.20;;;;;;5093786;28;20047;-69
2021/01/06 00:05:22;;;;;;;10.10;7.53;;;6.40;74.40;;;;;;5094439;28;20044;-68
2021/01/06 00:07:48;;;;;;;10.65;7.70;;;6.40;74.20;;;;;;5094520;28;20109;-70
2021/01/06 00:10:21;;;;;;;11.45;7.97;;;6.40;74.30;;;;;;5094369;28;20097;-69
2021/01/06 00:12:47;;;;;;;11.18;7.82;;;6.50;74.30;;;;;;5094461;28;20071;-69
2021/01/06 00:15:22;;;;;;;10.55;8.10;;;6.50;74.50;;;;;;5094410;28;20050;-68
2021/01/06 00:17:48;;;;;;;12.52;8.02;;;6.50;74.30;;;;;;5093253;28;20028;-69
2021/01/06 00:20:16;;;;;;;11.13;7.97;;;6.40;74.30;;;;;;5094285;28;20400;-69
2021/01/06 00:22:42;;;;;;;10.95;7.70;;;6.40;74.40;;;;;;5092953;28;20035;-70
2021/01/06 00:25:11;;;;;;;11.13;8.15;;;6.50;74.20;;;;;;5093558;28;20047;-67
2021/01/06 00:27:38;;;;;;;11.13;8.30;;;6.40;74.20;;;;;;5092939;28;20459;-69
2021/01/06 00:30:12;;;;;;;10.73;8.00;;;6.40;73.80;;;;;;5093931;28;20070;-68
2021/01/06 00:32:38;;;;;;;11.00;7.55;;;6.40;74.00;;;;;;5093876;28;20119;-69
2021/01/06 00:35:04;;;;;;;9.98;7.35;;;6.40;74.00;;;;;;5093813;28;20564;-68
2021/01/06 00:37:30;;;;;;;11.02;8.25;;;6.40;74.10;;;;;;5092668;28;20034;-68
2021/01/06 00:39:56;;;;;;;11.10;8.15;;;6.40;74.00;;;;;;5093389;28;20403;-69
2021/01/06 00:42:22;;;;;;;13.48;7.90;;;6.40;74.00;;;;;;5090946;28;20049;-68
2021/01/06 00:44:48;;;;;;;10.00;7.75;;;6.40;74.10;;;;;;5091119;28;20058;-68
2021/01/06 00:47:14;;;;;;;11.10;7.45;;;6.40;74.10;;;;;;5093290;28;20484;-68
2021/01/06 00:49:40;;;;;;;11.55;8.18;;;6.40;74.00;;;;;;5093365;28;20502;-69
2021/01/06 00:52:06;;;;;;;9.70;6.90;;;6.40;73.90;;;;;;5091926;28;20104;-69
2021/01/06 00:54:34;;;;;;;9.55;7.32;;;6.40;74.10;;;;;;5091769;28;20036;-68
2021/01/06 00:57:01;;;;;;;10.88;7.43;;;6.40;73.80;;;;;;5092135;28;20039;-69
2021/01/06 00:59:27;;;;;;;9.02;6.80;;;6.40;74.00;;;;;;5092382;28;20040;-70
2021/01/06 01:01:53;;;;;;;10.60;7.13;;;6.40;73.90;;;;;;5091775;28;20052;-69
2021/01/06 01:04:20;;;;;;;8.23;6.07;;;6.40;74.00;;;;;;5091919;28;20039;-69
2021/01/06 01:06:46;;;;;;;8.38;5.68;;;6.40;74.00;;;;;;5092127;28;20032;-67
2021/01/06 01:09:12;;;;;;;8.60;6.25;;;6.40;73.90;;;;;;5091860;28;20172;-68
2021/01/06 01:11:39;;;;;;;8.48;6.18;;;6.40;73.90;;;;;;5093156;28;20404;-69
2021/01/06 01:14:05;;;;;;;8.32;5.72;;;6.40;73.70;;;;;;5093088;28;20044;-68
2021/01/06 01:16:32;;;;;;;8.75;5.75;;;6.30;73.70;;;;;;5091706;28;20058;-70
2021/01/06 01:18:57;;;;;;;7.88;5.57;;;6.40;74.00;;;;;;5092754;28;20036;-71
2021/01/06 01:21:23;;;;;;;9.30;6.28;;;6.40;74.20;;;;;;5092767;28;20104;-69
2021/01/06 01:23:49;;;;;;;8.75;6.18;;;6.40;74.00;;;;;;5092740;28;20456;-69
2021/01/06 01:26:15;;;;;;;6.90;5.40;;;6.30;74.10;;;;;;5092993;28;20047;-70
2021/01/06 01:28:41;;;;;;;8.35;5.85;;;6.40;73.90;;;;;;5091650;28;20408;-69
2021/01/06 01:31:07;;;;;;;8.00;5.38;;;6.40;74.10;;;;;;5091997;28;20032;-68
2021/01/06 01:33:33;;;;;;;6.22;5.03;;;6.40;73.80;;;;;;5092851;28;20039;-69
2021/01/06 01:36:00;;;;;;;6.53;5.03;;;6.40;73.70;;;;;;5092871;28;20461;-70
2021/01/06 01:38:28;;;;;;;7.85;5.45;;;6.30;73.90;;;;;;5092831;28;20028;-70
2021/01/06 01:41:09;;;;;;;6.70;4.95;;;6.40;73.80;;;;;;5091869;28;20039;-69
2021/01/06 01:43:36;;;;;;;7.30;5.78;;;6.40;73.90;;;;;;5091227;28;20499;-69
2021/01/06 01:46:03;;;;;;;6.57;5.40;;;6.40;73.60;;;;;;5091433;28;20032;-70
2021/01/06 01:48:44;;;;;;;8.25;5.70;;;6.30;73.70;;;;;;5091264;28;20051;-70
2021/01/06 01:51:30;;;;;;;7.80;5.68;;;6.40;73.80;;;;;;5092765;28;20032;-68
2021/01/06 01:54:03;;;;;;;;;;;6.40;74.10;;;;;;5091924;28;20047;-71
2021/01/06 01:56:47;;;;;;;7.20;5.40;;;6.30;74.10;;;;;;5091609;28;19912;-69
2021/01/06 01:59:33;;;;;;;6.70;5.38;;;6.30;73.90;;;;;;5091087;28;20043;-70
2021/01/06 02:02:13;;;;;;;9.63;6.72;;;6.30;73.80;;;;;;5093224;28;20056;-69
2021/01/06 02:04:47;;;;;;;9.93;7.00;;;6.30;73.90;;;;;;5092233;28;20491;-69
2021/01/06 02:07:21;;;;;;;9.07;7.07;;;6.30;73.50;;;;;;5092445;28;20028;-69
2021/01/06 02:10:15;;;;;;;10.10;6.80;;;6.30;74.10;;;;;;5090934;28;20081;-69
2021/01/06 02:12:59;;;;;;;9.98;6.68;;;6.30;73.90;;;;;;5088514;28;20032;-68
2021/01/06 02:15:41;;;;;;;11.05;7.53;;;6.30;74.00;;;;;;5092529;28;20628;-69
2021/01/06 02:18:07;;;;;;;11.27;7.47;;;6.30;73.90;;;;;;5091186;28;20078;-69
2021/01/06 02:20:33;;;;;;;11.95;7.63;;;6.30;74.20;;;;;;5091100;28;20028;-69
2021/01/06 02:23:01;;;;;;;12.60;8.85;;;6.30;74.00;;;;;;5092441;28;20480;-70
2021/01/06 02:25:28;;;;;;;11.57;8.13;;;6.30;74.10;;;;;;5094472;28;20051;-67
2021/01/06 02:27:56;;;;;;;11.45;8.55;;;6.30;74.00;;;;;;5096279;28;20493;-69
2021/01/06 02:30:23;;;;;;;11.52;8.63;;;6.30;73.70;;;;;;5096076;28;20028;-68
2021/01/06 02:32:50;;;;;;;10.57;8.23;;;6.30;73.90;;;;;;5077717;28;20072;-70
2021/01/06 02:35:16;;;;;;;11.95;8.65;;;6.30;73.70;;;;;;5096104;28;20032;-67
2021/01/06 02:37:43;;;;;;;11.45;8.52;;;6.30;74.00;;;;;;5095972;28;20028;-70
2021/01/06 02:40:10;;;;;;;12.75;8.85;;;6.30;73.80;;;;;;5096119;28;20044;-67
2021/01/06 02:42:37;;;;;;;11.68;8.30;;;6.30;74.00;;;;;;5095769;28;20078;-67
2021/01/06 02:45:12;;;;;;;13.52;9.35;;;6.30;73.80;;;;;;5077461;28;20053;-69
2021/01/06 02:47:40;;;;;;;13.85;9.80;;;6.30;74.00;;;;;;5095955;28;20058;-68
2021/01/06 02:50:10;;;;;;;12.85;9.48;;;6.30;74.00;;;;;;5077669;28;20027;-66
2021/01/06 02:52:45;;;;;;;11.18;8.77;;;6.30;74.10;;;;;;5078051;28;20146;-68
2021/01/06 02:55:15;;;;;;;13.65;9.82;;;6.30;73.80;;;;;;5094521;28;20035;-69
2021/01/06 02:57:42;;;;;;;14.52;10.40;;;6.30;73.90;;;;;;5094190;28;20036;-68
2021/01/06 03:00:11;;;;;;;13.82;10.18;;;6.30;74.00;;;;;;5095363;28;20188;-69
2021/01/06 03:02:36;;;;;;;14.45;10.43;;;6.30;73.70;;;;;;5077986;28;20040;-72
2021/01/06 03:05:14;;;;;;;15.57;10.50;;;6.30;74.10;;;;;;5094273;28;20575;-69
2021/01/06 03:07:42;;;;;;;14.75;10.50;;;6.30;73.80;;;;;;5095382;28;20032;-68
2021/01/06 03:10:13;;;;;;;15.45;11.10;;;6.30;73.90;;;;;;5094110;28;20192;-69
2021/01/06 03:12:39;;;;;;;16.83;11.07;;;6.30;73.40;;;;;;5095734;28;20032;-70
2021/01/06 03:15:06;;;;;;;15.88;10.80;;;6.30;73.80;;;;;;5095384;28;20040;-71
2021/01/06 03:17:32;;;;;;;15.30;10.45;;;6.30;73.70;;;;;;5095366;28;20399;-70
2021/01/06 03:20:40;;;;;;;15.93;11.20;;;6.30;73.80;;;;;;5095006;28;20031;-70
2021/01/06 03:23:30;;;;;;;16.13;11.38;;;6.30;73.60;;;;;;5094823;28;20453;-68
2021/01/06 03:26:06;;;;;;;15.20;11.38;;;6.30;73.70;;;;;;5089422;28;20052;-70
2021/01/06 03:28:35;;;;;;;16.42;11.32;;;6.30;73.70;;;;;;5095015;28;20123;-69
2021/01/06 03:31:04;;;;;;;14.57;10.40;;;6.30;74.00;;;;;;5093823;28;20118;-68
2021/01/06 03:33:39;;;;;;;16.33;10.82;;;6.20;73.70;;;;;;5095009;28;20377;-70
2021/01/06 03:36:09;;;;;;;14.80;10.47;;;6.30;74.00;;;;;;5093805;28;20040;-71
2021/01/06 03:38:56;;;;;;;15.23;10.85;;;6.30;73.80;;;;;;5093769;28;20043;-70
2021/01/06 03:41:23;;;;;;;15.25;11.00;;;6.30;73.90;;;;;;5094712;28;20036;-70
2021/01/06 03:43:58;;;;;;;14.85;10.65;;;6.30;73.70;;;;;;5093407;28;20051;-71
2021/01/06 03:46:30;;;;;;;13.55;9.98;;;6.30;73.90;;;;;;5094825;28;20450;-70
2021/01/06 03:48:58;;;;;;;13.48;10.00;;;6.20;73.60;;;;;;5094548;28;20484;-71
2021/01/06 03:52:09;;;;;;;13.95;10.32;;;6.30;73.70;;;;;;5094463;28;20051;-69
2021/01/06 03:54:37;;;;;;;13.73;10.07;;;6.30;74.10;;;;;;5035191;28;20505;-68
2021/01/06 03:57:05;;;;;;;14.40;10.40;;;6.20;73.80;;;;;;5086238;28;20040;-72
2021/01/06 03:59:34;;;;;;;12.80;9.18;;;6.20;73.60;;;;;;5094157;28;20048;-69
2021/01/06 04:02:16;;;;;;;14.82;10.20;;;6.30;73.70;;;;;;5094028;28;20056;-69
2021/01/06 04:04:53;;;;;;;14.30;9.75;;;6.30;73.80;;;;;;5093937;28;20050;-67
2021/01/06 04:07:27;;;;;;;13.93;9.93;;;6.30;73.60;;;;;;5092983;28;20032;-70
2021/01/06 04:09:58;;;;;;;14.02;9.88;;;6.20;73.60;;;;;;5092963;28;20036;-71
2021/01/06 04:12:24;;;;;;;12.32;9.30;;;6.20;73.60;;;;;;5092884;28;20031;-70
2021/01/06 04:14:50;;;;;;;12.80;9.25;;;6.30;74.00;;;;;;5092831;28;20036;-69
2021/01/06 04:17:25;;;;;;;13.65;9.57;;;6.30;73.90;;;;;;5094033;28;20040;-71
2021/01/06 04:19:56;;;;;;;13.90;9.23;;;6.20;74.00;;;;;;5092806;28;20040;-71
2021/01/06 04:22:50;;;;;;;12.13;8.32;;;6.20;73.80;;;;;;5094420;28;20506;-69
2021/01/06 04:25:23;;;;;;;12.80;8.70;;;6.30;74.10;;;;;;5092312;28;20109;-69
2021/01/06 04:27:52;;;;;;;12.02;9.30;;;6.30;73.80;;;;;;5092743;28;20062;-68
2021/01/06 04:30:26;;;;;;;11.68;8.25;;;6.20;73.90;;;;;;5093871;28;20050;-70
2021/01/06 04:32:53;;;;;;;12.00;8.90;;;6.20;73.60;;;;;;5093882;28;20032;-69
2021/01/06 04:35:19;;;;;;;14.23;9.80;;;6.30;73.70;;;;;;5093580;28;20039;-69
2021/01/06 04:37:45;;;;;;;11.48;9.20;;;6.20;73.80;;;;;;5092354;28;20123;-68
2021/01/06 04:40:14;;;;;;;11.43;7.95;;;6.20;73.70;;;;;;5093598;28;20036;-70
2021/01/06 04:42:42;;;;;;;10.38;7.93;;;6.20;73.60;;;;;;5093581;28;20055;-72
2021/01/06 04:45:13;;;;;;;11.23;8.35;;;6.20;73.50;;;;;;5093765;28;20051;-70
2021/01/06 04:48:07;;;;;;;11.98;8.20;;;6.30;73.70;;;;;;5092283;28;20030;-69
2021/01/06 04:50:54;;;;;;;12.60;8.63;;;6.20;73.40;;;;;;5093077;28;20504;-69
2021/01/06 04:53:44;;;;;;;13.10;8.43;;;6.20;73.60;;;;;;5093487;28;20039;-69
2021/01/06 04:56:35;;;;;;;11.02;7.53;;;6.20;73.50;;;;;;5093017;28;20081;-70
2021/01/06 04:59:37;;;;;;;10.90;7.97;;;6.20;73.70;;;;;;5093109;28;20047;-70
2021/01/06 05:02:14;;;;;;;10.18;7.45;;;6.20;73.10;;;;;;5093536;28;20154;-69
2021/01/06 05:04:46;;;;;;;11.27;7.30;;;6.20;73.50;;;;;;5091770;28;20047;-69
2021/01/06 05:07:15;;;;;;;10.50;7.80;;;6.20;73.40;;;;;;5092944;28;20057;-71
2021/01/06 05:09:49;;;;;;;13.98;8.40;;;6.20;73.70;;;;;;5092813;28;20047;-69
2021/01/06 05:12:34;;;;;;;11.57;7.60;;;6.20;73.50;;;;;;5092091;28;20468;-71
2021/01/06 05:15:28;;;;;;;12.43;8.02;;;6.20;73.70;;;;;;5091776;28;20537;-70
2021/01/06 05:17:54;;;;;;;11.52;7.95;;;6.20;73.50;;;;;;5092787;28;20101;-70
2021/01/06 05:20:20;;;;;;;12.60;8.60;;;6.20;73.60;;;;;;5092955;28;20462;-69
2021/01/06 05:22:46;;;;;;;12.32;8.23;;;6.20;73.60;;;;;;5092923;28;20105;-68
2021/01/06 05:25:14;;;;;;;13.02;8.57;;;6.20;73.70;;;;;;5092961;28;20040;-70
2021/01/06 05:27:41;;;;;;;12.73;7.85;;;6.20;73.40;;;;;;5092724;28;20073;-69
2021/01/06 05:30:22;;;;;;;11.80;8.70;;;6.20;73.60;;;;;;5092753;28;20040;-70
2021/01/06 05:32:59;;;;;;;14.02;9.27;;;6.20;73.20;;;;;;5093171;28;20373;-70
2021/01/06 05:35:29;;;;;;;13.48;8.43;;;6.20;73.30;;;;;;5091370;28;20036;-70
2021/01/06 05:38:00;;;;;;;11.40;8.20;;;6.20;73.00;;;;;;5092957;28;20094;-69
2021/01/06 05:40:32;;;;;;;12.15;8.90;;;6.20;73.20;;;;;;5092758;28;20081;-71
2021/01/06 05:43:05;;;;;;;13.07;9.25;;;6.20;73.10;;;;;;5092367;28;20043;-68
2021/01/06 05:45:52;;;;;;;13.82;8.65;;;6.20;72.90;;;;;;5092505;28;20082;-68
2021/01/06 05:48:30;;;;;;;10.85;7.35;;;6.20;72.90;;;;;;5092672;28;20082;-69
2021/01/06 05:51:11;;;;;;;11.00;8.30;;;6.20;72.90;;;;;;5092523;28;20377;-69
2021/01/06 05:53:46;;;;;;;13.57;9.43;;;6.20;72.90;;;;;;5092934;28;20032;-67
2021/01/06 05:56:24;;;;;;;12.80;8.40;;;6.20;72.60;;;;;;5091390;28;20442;-68
2021/01/06 05:58:59;;;;;;;14.40;9.10;;;6.20;72.50;;;;;;5092381;28;20109;-67
2021/01/06 06:01:49;;;;;;;13.07;8.48;;;6.20;72.60;;;;;;5096838;28;20063;-69
2021/01/06 06:04:30;;;;;;;12.82;8.40;;;6.20;73.10;;;;;;5095876;28;20071;-69
2021/01/06 06:07:05;;;;;;;11.48;8.05;;;6.20;72.70;;;;;;5095780;28;20458;-69
2021/01/06 06:10:25;;;;;;;11.38;8.02;;;6.20;72.80;;;;;;5095174;28;20550;-69
2021/01/06 06:13:12;;;;;;;10.85;7.57;;;6.20;72.50;;;;;;5054140;28;20029;-69
2021/01/06 06:16:11;;;;;;;13.90;8.75;;;6.20;73.00;;;;;;5096567;28;20032;-68
2021/01/06 06:19:00;;;;;;;10.48;7.78;;;6.20;73.30;;;;;;5096087;28;20395;-70
2021/01/06 06:21:50;;;;;;;11.68;7.65;;;6.20;72.90;;;;;;5096106;28;20040;-70
2021/01/06 06:24:44;;;;;;;13.57;7.93;;;6.20;73.00;;;;;;5096191;28;20507;-68
2021/01/06 06:27:36;;;;;;;12.80;7.80;;;6.30;72.70;;;;;;5096242;28;20039;-68
2021/01/06 06:30:11;;;;;;;11.95;7.82;;;6.20;73.00;;;;;;5079835;28;20507;-68
2021/01/06 06:32:39;;;;;;;11.57;8.02;;;6.20;72.80;;;;;;5095849;28;20055;-69
2021/01/06 06:35:28;;;;;;;11.07;7.53;;;6.30;73.10;;;;;;5094632;28;20028;-70
2021/01/06 06:38:03;;;;;;;11.40;7.18;;;6.30;72.60;;;;;;5090325;28;20432;-69
2021/01/06 06:41:00;;;;;;;11.45;7.57;;;6.30;72.90;;;;;;5095834;28;20043;-69
2021/01/06 06:43:49;;;;;;;10.70;7.38;;;6.30;72.70;;;;;;5095435;28;20043;-71
2021/01/06 06:46:31;;;;;;;12.52;7.78;;;6.30;73.00;;;;;;5095868;28;20064;-70
2021/01/06 06:49:12;;;;;;;11.20;7.15;;;6.30;72.90;;;;;;5095706;28;20097;-69
2021/01/06 06:51:44;;;;;;;13.10;8.05;;;6.20;73.00;;;;;;5095704;28;20046;-68
2021/01/06 06:54:29;;;;;;;12.05;7.82;;;6.30;72.70;;;;;;5095682;28;20035;-71
2021/01/06 06:57:03;;;;;;;12.88;8.82;;;6.30;72.90;;;;;;5095673;28;20052;-67
2021/01/06 06:59:41;;;;;;;10.05;7.70;;;6.30;72.70;;;;;;5095760;28;20157;-71
2021/01/06 07:02:07;;;;;;;12.50;8.23;;;6.30;72.90;;;;;;5095511;28;20147;-69
2021/01/06 07:05:06;;;;;;;12.55;8.55;;;6.30;72.70;;;;;;5076915;28;20473;-71
2021/01/06 07:07:32;;;;;;;12.48;8.95;;;6.30;73.10;;;;;;5072098;28;20040;-71
2021/01/06 07:09:59;;;;;;;13.82;8.80;;;6.30;72.90;;;;;;5095425;28;20036;-68
2021/01/06 07:12:25;;;;;;;11.95;8.27;;;6.30;72.80;;;;;;5094945;28;20050;-70
2021/01/06 07:14:59;;;;;;;13.02;8.65;;;6.30;72.70;;;;;;5093962;28;20048;-71
2021/01/06 07:17:33;;;;;;;11.68;8.32;;;6.30;72.80;;;;;;5095570;28;20503;-69
2021/01/06 07:20:09;;;;;;;12.20;8.15;;;6.40;72.90;;;;;;5094130;28;20043;-72
2021/01/06 07:22:35;;;;;;;13.52;8.90;;;6.40;72.90;;;;;;5093822;28;20028;-70
2021/01/06 07:25:18;;;;;;;14.52;9.13;;;6.40;72.70;;;;;;5094793;28;20059;-71
2021/01/06 07:28:16;;;;;;;13.60;9.57;;;6.40;72.80;;;;;;5094325;28;20040;-71
2021/01/06 07:30:46;;;;;;;15.05;9.40;;;6.50;72.60;;;;;;5093025;28;20047;-71
2021/01/06 07:33:32;;;;;;;13.27;8.40;;;6.50;72.80;;;;;;5095025;28;20373;-72
2021/01/06 07:36:12;;;;;;;13.88;9.43;;;6.50;72.50;;;;;;5093564;28;20032;-69
2021/01/06 07:38:39;;;;;;;14.32;9.52;;;6.50;72.40;;;;;;5077167;28;20412;-71
2021/01/06 07:41:06;;;;;;;14.93;9.82;;;6.50;72.40;;;;;;5093528;28;20492;-70
2021/01/06 07:43:34;;;;;;;12.35;9.57;;;6.50;72.40;;;;;;5093281;28;20046;-70
2021/01/06 07:45:59;;;;;;;14.63;10.38;;;6.50;72.50;;;;;;5094536;28;20122;-71
2021/01/06 07:48:53;;;;;;;16.42;10.70;;;6.50;72.30;;;;;;5094421;28;20553;-70
2021/01/06 07:51:25;;;;;;;16.05;10.75;;;6.50;72.40;;;;;;5094783;28;20399;-71
2021/01/06 07:54:14;;;;;;;13.82;10.07;;;6.50;72.20;;;;;;5094301;28;20447;-72
2021/01/06 07:56:40;;;;;;;15.35;10.70;;;6.50;72.40;;;;;;5092715;28;20040;-71
2021/01/06 07:59:29;;;;;;;15.40;10.18;;;6.50;72.30;;;;;;5094416;28;20043;-69
2021/01/06 08:02:13;;;;;;;17.13;11.93;;;6.50;72.70;;;;;;5092669;28;20052;-71
2021/01/06 08:04:55;;;;;;;16.17;10.88;;;6.50;72.30;;;;;;5094367;28;20043;-70
2021/01/06 08:07:25;;;;;;;16.45;11.43;;;6.50;72.50;;;;;;5092596;28;20580;-72
2021/01/06 08:09:51;;;;;;;16.83;11.07;;;6.60;72.40;;;;;;5092794;28;20092;-71
2021/01/06 08:12:47;;;;;;;18.95;12.35;;;6.60;73.10;;;;;;5092976;28;20055;-71
2021/01/06 08:15:19;;;;;;;18.15;12.05;;;6.60;72.30;;;;;;5084691;28;20036;-68
2021/01/06 08:17:50;;;;;;;17.35;11.43;;;6.60;72.10;;;;;;5093699;28;20400;-68
2021/01/06 08:20:25;;;;;;;16.92;11.75;;;6.60;71.90;;;;;;5075892;28;20077;-73
2021/01/06 08:23:16;;;;;;;18.27;12.05;;;6.60;72.10;;;;;;5093260;28;20508;-71
2021/01/06 08:25:52;;;;;;;17.67;11.95;;;6.60;72.30;;;;;;5093380;28;20051;-71
2021/01/06 08:28:26;;;;;;;;;;;6.60;71.60;;;;;;5093972;28;20492;-72
2021/01/06 08:30:51;;;;;;;18.48;12.07;;;6.60;71.70;;;;;;5092067;28;19911;-70
2021/01/06 08:33:19;;;;;;;20.10;13.05;;;6.70;71.80;;;;;;5093641;28;20126;-69
2021/01/06 08:35:50;;;;;;;19.88;12.82;;;6.70;71.90;;;;;;5092050;28;20046;-73
2021/01/06 08:38:29;;;;;;;20.00;13.13;;;6.70;71.60;;;;;;5092559;28;20075;-70
2021/01/06 08:40:56;;;;;;;19.50;12.90;;;6.70;71.70;;;;;;5114008;27;20093;-72
2021/01/06 08:43:23;;;;;;;19.77;13.10;;;6.70;71.60;;;;;;5090764;28;20041;-70
2021/01/06 08:45:57;;;;;;;20.98;14.02;;;6.80;71.70;;;;;;5091936;28;20067;-70
2021/01/06 08:48:26;;;;;;;19.63;12.27;;;6.80;71.30;;;;;;5091328;28;20122;-72
2021/01/06 08:50:56;;;;;;;18.13;12.40;;;6.80;71.50;;;;;;5093568;28;20040;-76
2021/01/06 08:53:31;;;;;;;18.65;12.48;;;6.80;69.80;;;;;;5093463;28;20377;-72
2021/01/06 08:56:00;;;;;;;21.70;14.48;;;6.80;69.80;;;;;;5092000;28;20031;-69
2021/01/06 08:58:46;;;;;;;21.35;13.68;;;6.80;69.90;;;;;;5092649;28;20036;-73
2021/01/06 09:01:21;;;;;;;20.42;13.35;;;6.80;70.10;;;;;;5093497;28;20121;-73
2021/01/06 09:04:19;;;;;;;23.23;14.77;;;6.70;70.40;;;;;;5092519;28;20047;-72
2021/01/06 09:07:14;;;;;;;21.27;13.43;;;6.70;70.60;;;;;;5092993;28;20040;-70
2021/01/06 09:10:05;;;;;;;24.63;14.55;;;6.70;70.60;;;;;;5093089;28;20036;-71
2021/01/06 09:12:49;;;;;;;22.02;13.20;;;6.70;71.10;;;;;;5075380;28;20442;-68
2021/01/06 09:15:29;;;;;;;21.33;13.63;;;6.60;70.90;;;;;;5093075;28;20488;-70
2021/01/06 09:18:19;;;;;;;21.40;13.10;;;6.50;70.70;;;;;;5092959;28;20122;-68
2021/01/06 09:21:01;;;;;;;22.42;13.60;;;6.50;71.00;;;;;;5085669;28;20048;-70
2021/01/06 09:23:28;;;;;;;23.48;14.40;;;6.50;71.20;;;;;;5084756;28;20141;-68
2021/01/06 09:25:54;;;;;;;24.52;14.02;;;6.60;71.30;;;;;;5079043;28;20032;-68
2021/01/06 09:28:21;;;;;;;21.52;14.27;;;6.50;71.00;;;;;;5057898;28;20389;-70
2021/01/06 09:30:48;;;;;;;21.08;13.70;;;6.60;71.30;;;;;;5081195;28;20051;-71
2021/01/06 09:33:28;;;;;;;22.67;14.15;;;6.50;71.40;;;;;;5072978;28;20119;-70
2021/01/06 09:35:55;;;;;;;20.92;14.32;;;6.60;71.80;;;;;;5070978;28;20033;-70
2021/01/06 09:38:30;;;;;;;23.85;13.80;;;6.60;71.60;;;;;;5071982;28;20499;-69
2021/01/06 09:41:00;;;;;;;20.87;13.70;;;6.60;71.50;;;;;;5084964;28;20047;-70
2021/01/06 09:43:48;;;;;;;23.38;14.55;;;6.60;71.80;;;;;;5072360;28;20275;-70
2021/01/06 09:46:38;;;;;;;19.08;12.23;;;6.60;71.70;;;;;;5071326;28;20036;-68
2021/01/06 09:49:19;;;;;;;18.27;11.35;;;6.70;71.20;;;;;;5072489;28;20044;-70
2021/01/06 09:51:50;;;;;;;21.73;13.38;;;6.60;71.10;;;;;;5072324;28;20037;-69
2021/01/06 09:54:17;;;;;;;20.30;13.05;;;6.60;71.40;;;;;;5075307;28;20055;-70
2021/01/06 09:56:44;;;;;;;20.85;12.52;;;6.70;71.50;;;;;;5080884;28;20043;-70
2021/01/06 09:59:35;;;;;;;20.85;12.68;;;6.70;71.40;;;;;;5071221;28;20127;-70
2021/01/06 10:02:31;;;;;;;20.73;13.10;;;6.60;71.20;;;;;;5031472;28;20072;-72
2021/01/06 10:05:34;;;;;;;21.20;12.73;;;6.60;71.40;;;;;;5031187;28;20110;-71
2021/01/06 10:08:38;;;;;;;18.65;12.45;;;6.60;71.60;;;;;;5032463;28;20056;-70
2021/01/06 10:11:21;;;;;;;19.67;12.23;;;6.60;71.40;;;;;;5038931;28;20462;-71
2021/01/06 10:14:12;;;;;;;19.60;12.70;;;6.60;71.50;;;;;;5035286;28;20065;-70
2021/01/06 10:17:02;;;;;;;18.50;12.68;;;6.60;71.80;;;;;;5051264;28;20048;-69
2021/01/06 10:19:42;;;;;;;20.52;12.40;;;6.60;71.80;;;;;;5049353;28;20059;-69
2021/01/06 10:22:21;;;;;;;20.10;11.82;;;6.60;71.70;;;;;;5044283;28;20079;-71
2021/01/06 10:25:04;;;;;;;19.75;12.85;;;6.60;71.70;;;;;;5034478;28;20088;-68
2021/01/06 10:27:37;;;;;;;20.67;12.38;;;6.60;71.90;;;;;;5032515;28;20116;-69
2021/01/06 10:30:18;;;;;;;20.83;12.55;;;6.60;71.90;;;;;;5031972;28;20120;-67
2021/01/06 10:32:49;;;;;;;20.27;11.85;;;6.50;71.60;;;;;;5030715;28;20532;-68
2021/01/06 10:35:36;;;;;;;23.00;13.77;;;6.50;71.50;;;;;;5033821;28;21700;-65
2021/01/06 10:38:25;;;;;;;20.40;12.65;;;6.50;71.80;;;;;;5044143;28;20037;-66
2021/01/06 10:41:13;;;;;;;20.50;12.93;;;6.50;72.10;;;;;;5040681;28;20045;-72
2021/01/06 10:43:43;;;;;;;19.85;12.63;;;6.50;71.70;;;;;;5027758;28;20445;-69
2021/01/06 10:46:40;;;;;;;21.05;12.68;;;6.50;71.60;;;;;;5031772;28;20065;-68
2021/01/06 10:49:12;;;;;;;20.10;11.73;;;6.50;72.20;;;;;;5033110;28;20041;-69
2021/01/06 10:51:59;;;;;;;20.67;11.82;;;6.50;74.10;;;;;;5034327;28;20401;-71
2021/01/06 10:54:41;;;;;;;21.02;12.02;;;6.50;76.50;;;;;;5034066;28;20056;-70
2021/01/06 10:57:10;;;;;;;18.98;11.82;;;6.60;77.70;;;;;;5033966;28;20053;-71
2021/01/06 10:59:36;;;;;;;22.05;11.68;;;6.70;78.20;;;;;;5034517;28;20052;-70
2021/01/06 11:02:21;;;;;;;18.52;11.02;;;6.70;78.90;;;;;;5070866;28;20429;-71
2021/01/06 11:05:01;;;;;;;27.10;12.52;;;6.80;79.20;;;;;;5073434;28;20416;-68
2021/01/06 11:07:39;;;;;;;18.95;11.05;;;6.80;79.40;;;;;;5075300;28;20047;-69
2021/01/06 11:10:14;;;;;;;17.55;10.85;;;6.90;79.20;;;;;;5073860;28;20029;-70
2021/01/06 11:13:13;;;;;;;17.90;9.77;;;6.90;79.20;;;;;;5074130;28;20412;-71
2021/01/06 11:16:00;;;;;;;18.23;10.25;;;6.90;79.20;;;;;;5071785;28;20497;-71
2021/01/06 11:18:26;;;;;;;15.77;10.00;;;7.00;78.90;;;;;;5074430;28;20564;-69
2021/01/06 11:21:10;;;;;;;16.20;9.38;;;7.00;78.60;;;;;;5073860;28;20135;-70
2021/01/06 11:23:57;;;;;;;17.23;9.63;;;7.00;78.60;;;;;;5073827;28;20035;-70
2021/01/06 11:26:31;;;;;;;14.70;9.35;;;7.00;78.40;;;;;;5074840;28;20041;-70
2021/01/06 11:29:12;;;;;;;16.65;10.20;;;7.00;78.30;;;;;;5075015;28;20504;-70
2021/01/06 11:32:00;;;;;;;16.52;10.25;;;7.10;78.20;;;;;;5074602;28;20041;-71
2021/01/06 11:34:34;;;;;;;16.38;10.38;;;7.10;78.10;;;;;;5043436;28;20053;-71
2021/01/06 11:37:04;;;;;;;15.88;10.05;;;7.00;77.80;;;;;;5073770;28;20110;-69
2021/01/06 11:39:36;;;;;;;14.13;9.70;;;7.00;77.60;;;;;;5073686;28;20040;-69
2021/01/06 11:42:15;;;;;;;15.63;10.18;;;7.10;77.50;;;;;;5074659;28;20469;-73
2021/01/06 11:44:42;;;;;;;16.95;9.98;;;7.10;77.40;;;;;;5074508;28;20041;-71
2021/01/06 11:47:34;;;;;;;15.10;9.95;;;7.10;77.20;;;;;;5073081;28;20037;-69
2021/01/06 11:50:24;;;;;;;15.68;9.52;;;7.10;77.00;;;;;;5073455;28;20039;-71
2021/01/06 11:52:52;;;;;;;15.93;9.57;;;7.10;76.90;;;;;;5074543;28;20036;-71
2021/01/06 11:55:44;;;;;;;13.57;9.35;;;7.10;76.70;;;;;;5074261;28;20041;-71
2021/01/06 11:58:31;;;;;;;14.38;8.90;;;7.10;76.40;;;;;;5061364;28;20033;-69
2021/01/06 12:01:16;;;;;;;13.85;8.82;;;7.10;76.10;;;;;;5074323;28;20057;-70
2021/01/06 12:03:45;;;;;;;15.35;9.15;;;7.10;75.90;;;;;;5072977;28;20036;-70
2021/01/06 12:06:37;;;;;;;13.10;8.55;;;7.10;75.90;;;;;;5072777;28;20040;-72
2021/01/06 12:09:08;;;;;;;13.75;8.05;;;7.10;75.90;;;;;;5074066;28;20074;-73
2021/01/06 12:12:12;;;;;;;13.77;8.63;;;7.10;75.60;;;;;;5089746;28;20131;-71
2021/01/06 12:14:51;;;;;;;14.30;8.82;;;7.10;75.70;;;;;;5074373;28;20037;-71
2021/01/06 12:17:24;;;;;;;12.75;8.75;;;7.10;75.70;;;;;;5072962;28;20060;-71
2021/01/06 12:19:58;;;;;;;12.10;8.10;;;7.10;75.70;;;;;;5073850;28;20515;-71
2021/01/06 12:22:25;;;;;;;13.10;8.30;;;7.10;75.50;;;;;;5089372;28;20036;-70
2021/01/06 12:24:53;;;;;;;13.13;7.85;;;7.10;75.30;;;;;;5073613;28;20522;-70
2021/01/06 12:27:34;;;;;;;11.40;6.80;;;7.10;75.20;;;;;;5073781;28;20048;-69
2021/01/06 12:30:12;;;;;;;11.43;6.57;;;7.00;74.70;;;;;;5073698;28;20507;-70
2021/01/06 12:32:50;;;;;;;10.85;6.55;;;7.00;74.20;;;;;;5073648;28;20406;-69
2021/01/06 12:35:36;;;;;;;13.55;8.00;;;7.00;74.40;;;;;;5072349;28;20059;-69
2021/01/06 12:38:20;;;;;;;13.27;7.20;;;7.00;74.30;;;;;;5073678;28;20404;-70
2021/01/06 12:41:17;;;;;;;12.88;7.13;;;7.00;74.20;;;;;;5072362;28;20462;-71
2021/01/06 12:44:09;;;;;;;10.73;6.45;;;7.00;74.00;;;;;;5065501;28;20523;-71
2021/01/06 12:47:07;;;;;;;11.93;6.97;;;7.00;73.90;;;;;;5070179;28;20075;-70
2021/01/06 12:50:03;;;;;;;9.75;6.20;;;7.00;73.80;;;;;;5039493;28;20098;-71
2021/01/06 12:52:35;;;;;;;9.53;6.60;;;7.00;73.90;;;;;;5072931;28;20048;-69
2021/01/06 12:55:39;;;;;;;11.30;7.60;;;7.00;73.50;;;;;;5072982;28;20267;-71
2021/01/06 12:58:32;;;;;;;13.23;6.60;;;7.00;73.40;;;;;;5042022;28;20048;-69
2021/01/06 13:01:22;;;;;;;10.35;7.10;;;7.00;73.40;;;;;;5091484;28;20053;-69
2021/01/06 13:03:57;;;;;;;10.45;6.93;;;7.00;73.30;;;;;;5075437;28;20374;-70
2021/01/06 13:06:34;;;;;;;11.50;7.15;;;6.90;72.80;;;;;;5072583;28;20081;-71
2021/01/06 13:09:06;;;;;;;9.93;6.53;;;6.90;72.70;;;;;;5071378;28;20029;-71
2021/01/06 13:12:01;;;;;;;9.65;6.57;;;6.90;72.80;;;;;;5071887;28;20125;-70
2021/01/06 13:14:35;;;;;;;11.80;6.80;;;6.90;72.80;;;;;;5072788;28;20075;-70
2021/01/06 13:17:14;;;;;;;8.65;5.75;;;6.90;72.60;;;;;;5074002;28;20047;-68
2021/01/06 13:20:05;;;;;;;9.88;6.60;;;6.90;72.30;;;;;;5071726;28;20571;-70
2021/01/06 13:22:41;;;;;;;8.23;5.82;;;6.90;72.50;;;;;;5042322;28;20105;-70
2021/01/06 13:25:17;;;;;;;9.65;6.45;;;6.90;72.50;;;;;;5070136;28;20048;-68
2021/01/06 13:27:52;;;;;;;10.07;6.47;;;6.90;72.40;;;;;;5071544;28;20039;-70
2021/01/06 13:30:29;;;;;;;9.73;6.25;;;6.90;72.10;;;;;;5072121;28;20045;-69
2021/01/06 13:33:01;;;;;;;10.10;6.57;;;6.90;72.00;;;;;;5071287;28;20511;-69